sensor_id;sensor_type;location;lat;lon;timestamp;P1;durP1;ratioP1;P2;durP2;ratioP2
43042;SDS011;28667;50.758;6.096;2022-11-20T00:01:23;22.40;;;8.75;;
43042;SDS011;28667;50.758;6.096;2022-11-20T00:03:53;17.77;;;7.35;;
43042;SDS011;28667;50.758;6.096;2022-11-20T00:06:20;18.25;;;9.23;;
43042;SDS011;28667;50.758;6.096;2022-11-20T00:08:47;19.58;;;8.35;;
43042;SDS011;28667;50.758;6.096;2022-11-20T00:11:15;21.90;;;9.32;;
43042;SDS011;28667;50.758;6.096;2022-11-20T00:13:43;20.95;;;8.73;;
43042;SDS011;28667;50.758;6.096;2022-11-20T00:16:10;14.75;;;6.90;;
43042;SDS011;28667;50.758;6.096;2022-11-20T00:18:37;20.33;;;8.50;;
43042;SDS011;28667;50.758;6.096;2022-11-20T00:21:04;21.50;;;8.23;;
43042;SDS011;28667;50.758;6.096;2022-11-20T00:23:31;18.92;;;7.53;;
43042;SDS011;28667;50.758;6.096;2022-11-20T00:26:00;20.13;;;8.88;;
43042;SDS011;28667;50.758;6.096;2022-11-20T00:28:28;19.67;;;8.45;;
43042;SDS011;28667;50.758;6.096;2022-11-20T00:30:59;21.80;;;8.50;;
43042;SDS011;28667;50.758;6.096;2022-11-20T00:33:29;20.08;;;7.32;;
43042;SDS011;28667;50.758;6.096;2022-11-20T00:35:58;16.85;;;7.65;;
43042;SDS011;28667;50.758;6.096;2022-11-20T00:38:29;22.20;;;7.05;;
43042;SDS011;28667;50.758;6.096;2022-11-20T00:40:56;21.92;;;8.32;;
43042;SDS011;28667;50.758;6.096;2022-11-20T00:43:23;16.42;;;7.38;;
43042;SDS011;28667;50.758;6.096;2022-11-20T00:45:49;15.13;;;6.82;;
43042;SDS011;28667;50.758;6.096;2022-11-20T00:48:15;20.92;;;9.00;;
43042;SDS011;28667;50.758;6.096;2022-11-20T00:50:41;13.48;;;5.85;;
43042;SDS011;28667;50.758;6.096;2022-11-20T00:53:06;21.17;;;7.55;;
43042;SDS011;28667;50.758;6.096;2022-11-20T00:55:32;18.52;;;7.63;;
43042;SDS011;28667;50.758;6.096;2022-11-20T00:57:58;20.52;;;7.50;;
43042;SDS011;28667;50.758;6.096;2022-11-20T01:00:23;21.05;;;7.72;;
43042;SDS011;28667;50.758;6.096;2022-11-20T01:02:49;18.75;;;8.18;;
43042;SDS011;28667;50.758;6.096;2022-11-20T01:05:15;18.50;;;7.05;;
43042;SDS011;28667;50.758;6.096;2022-11-20T01:07:40;19.27;;;7.25;;
43042;SDS011;28667;50.758;6.096;2022-11-20T01:10:06;19.95;;;8.05;;
43042;SDS011;28667;50.758;6.096;2022-11-20T01:12:32;21.98;;;8.50;;
43042;SDS011;28667;50.758;6.096;2022-11-20T01:14:58;17.48;;;8.05;;
43042;SDS011;28667;50.758;6.096;2022-11-20T01:17:23;21.63;;;9.02;;
43042;SDS011;28667;50.758;6.096;2022-11-20T01:19:49;20.88;;;8.45;;
43042;SDS011;28667;50.758;6.096;2022-11-20T01:22:15;18.00;;;7.15;;
43042;SDS011;28667;50.758;6.096;2022-11-20T01:24:41;23.27;;;8.38;;
43042;SDS011;28667;50.758;6.096;2022-11-20T01:27:07;21.55;;;6.75;;
43042;SDS011;28667;50.758;6.096;2022-11-20T01:29:32;19.85;;;8.13;;
43042;SDS011;28667;50.758;6.096;2022-11-20T01:31:58;16.75;;;7.38;;
43042;SDS011;28667;50.758;6.096;2022-11-20T01:34:24;23.15;;;8.50;;
43042;SDS011;28667;50.758;6.096;2022-11-20T01:36:50;18.30;;;7.38;;
43042;SDS011;28667;50.758;6.096;2022-11-20T01:39:21;22.23;;;8.25;;
43042;SDS011;28667;50.758;6.096;2022-11-20T01:41:49;22.45;;;9.05;;
43042;SDS011;28667;50.758;6.096;2022-11-20T01:47:12;18.45;;;8.75;;
43042;SDS011;28667;50.758;6.096;2022-11-20T01:49:43;17.90;;;7.88;;
43042;SDS011;28667;50.758;6.096;2022-11-20T01:52:15;18.00;;;7.65;;
43042;SDS011;28667;50.758;6.096;2022-11-20T01:55:28;16.75;;;7.07;;
43042;SDS011;28667;50.758;6.096;2022-11-20T01:57:37;17.33;;;7.05;;
43042;SDS011;28667;50.758;6.096;2022-11-20T02:00:08;21.38;;;7.38;;
43042;SDS011;28667;50.758;6.096;2022-11-20T02:02:39;13.95;;;6.38;;
43042;SDS011;28667;50.758;6.096;2022-11-20T02:05:12;17.38;;;7.38;;
43042;SDS011;28667;50.758;6.096;2022-11-20T02:07:43;18.17;;;6.90;;
43042;SDS011;28667;50.758;6.096;2022-11-20T02:10:10;14.20;;;6.90;;
43042;SDS011;28667;50.758;6.096;2022-11-20T02:12:36;14.95;;;6.72;;
43042;SDS011;28667;50.758;6.096;2022-11-20T02:15:20;19.08;;;6.80;;
43042;SDS011;28667;50.758;6.096;2022-11-20T02:17:46;20.48;;;8.60;;
43042;SDS011;28667;50.758;6.096;2022-11-20T02:20:13;25.85;;;8.98;;
43042;SDS011;28667;50.758;6.096;2022-11-20T02:22:46;17.20;;;7.30;;
43042;SDS011;28667;50.758;6.096;2022-11-20T02:25:20;21.17;;;7.05;;
43042;SDS011;28667;50.758;6.096;2022-11-20T02:27:46;14.75;;;6.38;;
43042;SDS011;28667;50.758;6.096;2022-11-20T02:30:12;15.10;;;6.22;;
43042;SDS011;28667;50.758;6.096;2022-11-20T02:32:38;17.58;;;6.18;;
43042;SDS011;28667;50.758;6.096;2022-11-20T02:35:08;13.63;;;6.95;;
43042;SDS011;28667;50.758;6.096;2022-11-20T02:37:36;16.98;;;6.55;;
43042;SDS011;28667;50.758;6.096;2022-11-20T02:40:05;18.55;;;6.15;;
43042;SDS011;28667;50.758;6.096;2022-11-20T02:42:31;16.67;;;6.28;;
43042;SDS011;28667;50.758;6.096;2022-11-20T02:44:57;19.95;;;6.90;;
43042;SDS011;28667;50.758;6.096;2022-11-20T02:47:22;19.48;;;7.60;;
43042;SDS011;28667;50.758;6.096;2022-11-20T02:49:48;16.70;;;6.65;;
43042;SDS011;28667;50.758;6.096;2022-11-20T02:52:13;17.52;;;7.45;;
43042;SDS011;28667;50.758;6.096;2022-11-20T02:54:39;14.80;;;5.97;;
43042;SDS011;28667;50.758;6.096;2022-11-20T02:57:05;13.95;;;5.28;;
43042;SDS011;28667;50.758;6.096;2022-11-20T02:59:30;18.05;;;6.43;;
43042;SDS011;28667;50.758;6.096;2022-11-20T03:01:56;17.40;;;6.82;;
43042;SDS011;28667;50.758;6.096;2022-11-20T03:04:22;18.73;;;7.68;;
43042;SDS011;28667;50.758;6.096;2022-11-20T03:06:47;15.40;;;6.28;;
43042;SDS011;28667;50.758;6.096;2022-11-20T03:09:13;17.23;;;6.45;;
43042;SDS011;28667;50.758;6.096;2022-11-20T03:11:39;18.23;;;5.72;;
43042;SDS011;28667;50.758;6.096;2022-11-20T03:14:04;16.70;;;6.20;;
43042;SDS011;28667;50.758;6.096;2022-11-20T03:16:31;16.63;;;6.68;;
43042;SDS011;28667;50.758;6.096;2022-11-20T03:18:57;14.98;;;6.30;;
43042;SDS011;28667;50.758;6.096;2022-11-20T03:21:23;18.70;;;7.85;;
43042;SDS011;28667;50.758;6.096;2022-11-20T03:23:49;16.58;;;6.57;;
43042;SDS011;28667;50.758;6.096;2022-11-20T03:28:48;16.02;;;6.72;;
43042;SDS011;28667;50.758;6.096;2022-11-20T03:31:15;14.27;;;5.97;;
43042;SDS011;28667;50.758;6.096;2022-11-20T03:33:44;15.02;;;6.18;;
43042;SDS011;28667;50.758;6.096;2022-11-20T03:36:11;11.13;;;5.88;;
43042;SDS011;28667;50.758;6.096;2022-11-20T03:38:37;16.70;;;6.35;;
43042;SDS011;28667;50.758;6.096;2022-11-20T03:41:08;18.05;;;7.50;;
43042;SDS011;28667;50.758;6.096;2022-11-20T03:43:35;17.15;;;7.25;;
43042;SDS011;28667;50.758;6.096;2022-11-20T03:46:01;12.10;;;5.97;;
43042;SDS011;28667;50.758;6.096;2022-11-20T03:48:28;14.43;;;6.22;;
43042;SDS011;28667;50.758;6.096;2022-11-20T03:51:39;20.38;;;7.32;;
43042;SDS011;28667;50.758;6.096;2022-11-20T03:53:41;18.52;;;6.82;;
43042;SDS011;28667;50.758;6.096;2022-11-20T03:56:08;19.73;;;6.78;;
43042;SDS011;28667;50.758;6.096;2022-11-20T03:58:37;18.55;;;6.78;;
43042;SDS011;28667;50.758;6.096;2022-11-20T04:03:37;16.27;;;6.63;;
43042;SDS011;28667;50.758;6.096;2022-11-20T04:06:05;23.63;;;8.68;;
43042;SDS011;28667;50.758;6.096;2022-11-20T04:08:32;18.33;;;6.70;;
43042;SDS011;28667;50.758;6.096;2022-11-20T04:11:08;19.42;;;8.13;;
43042;SDS011;28667;50.758;6.096;2022-11-20T04:13:38;22.88;;;7.75;;
43042;SDS011;28667;50.758;6.096;2022-11-20T04:16:04;24.75;;;8.23;;
43042;SDS011;28667;50.758;6.096;2022-11-20T04:18:31;17.75;;;7.97;;
43042;SDS011;28667;50.758;6.096;2022-11-20T04:20:57;21.58;;;7.97;;
43042;SDS011;28667;50.758;6.096;2022-11-20T04:23:24;21.13;;;8.68;;
43042;SDS011;28667;50.758;6.096;2022-11-20T04:25:50;21.02;;;7.82;;
43042;SDS011;28667;50.758;6.096;2022-11-20T04:28:15;20.45;;;8.38;;
43042;SDS011;28667;50.758;6.096;2022-11-20T04:30:41;19.02;;;7.10;;
43042;SDS011;28667;50.758;6.096;2022-11-20T04:33:07;18.90;;;7.82;;
43042;SDS011;28667;50.758;6.096;2022-11-20T04:35:35;21.80;;;8.95;;
43042;SDS011;28667;50.758;6.096;2022-11-20T04:38:02;16.73;;;6.85;;
43042;SDS011;28667;50.758;6.096;2022-11-20T04:40:28;22.58;;;8.52;;
43042;SDS011;28667;50.758;6.096;2022-11-20T04:42:54;21.73;;;7.93;;
43042;SDS011;28667;50.758;6.096;2022-11-20T04:45:20;17.23;;;6.97;;
43042;SDS011;28667;50.758;6.096;2022-11-20T04:47:47;22.63;;;7.93;;
43042;SDS011;28667;50.758;6.096;2022-11-20T04:50:12;22.27;;;8.10;;
43042;SDS011;28667;50.758;6.096;2022-11-20T04:52:38;22.70;;;8.30;;
43042;SDS011;28667;50.758;6.096;2022-11-20T04:55:04;24.30;;;9.70;;
43042;SDS011;28667;50.758;6.096;2022-11-20T04:57:30;18.52;;;7.35;;
43042;SDS011;28667;50.758;6.096;2022-11-20T04:59:56;20.33;;;8.90;;
43042;SDS011;28667;50.758;6.096;2022-11-20T05:02:21;22.05;;;8.25;;
43042;SDS011;28667;50.758;6.096;2022-11-20T05:04:48;24.95;;;11.32;;
43042;SDS011;28667;50.758;6.096;2022-11-20T05:07:13;34.95;;;11.35;;
43042;SDS011;28667;50.758;6.096;2022-11-20T05:09:39;25.75;;;9.75;;
43042;SDS011;28667;50.758;6.096;2022-11-20T05:12:06;23.63;;;10.38;;
43042;SDS011;28667;50.758;6.096;2022-11-20T05:14:33;24.33;;;9.43;;
43042;SDS011;28667;50.758;6.096;2022-11-20T05:16:58;21.52;;;9.38;;
43042;SDS011;28667;50.758;6.096;2022-11-20T05:19:24;23.05;;;8.75;;
43042;SDS011;28667;50.758;6.096;2022-11-20T05:21:50;26.95;;;10.38;;
43042;SDS011;28667;50.758;6.096;2022-11-20T05:24:16;23.35;;;8.98;;
43042;SDS011;28667;50.758;6.096;2022-11-20T05:26:41;24.33;;;10.25;;
43042;SDS011;28667;50.758;6.096;2022-11-20T05:29:09;36.03;;;11.35;;
43042;SDS011;28667;50.758;6.096;2022-11-20T05:31:38;30.10;;;10.30;;
43042;SDS011;28667;50.758;6.096;2022-11-20T05:34:05;20.77;;;9.43;;
43042;SDS011;28667;50.758;6.096;2022-11-20T05:36:31;26.48;;;12.13;;
43042;SDS011;28667;50.758;6.096;2022-11-20T05:38:57;33.25;;;11.90;;
43042;SDS011;28667;50.758;6.096;2022-11-20T05:41:23;24.65;;;10.00;;
43042;SDS011;28667;50.758;6.096;2022-11-20T05:43:49;27.38;;;11.20;;
43042;SDS011;28667;50.758;6.096;2022-11-20T05:46:17;34.13;;;10.50;;
43042;SDS011;28667;50.758;6.096;2022-11-20T05:48:44;29.13;;;10.73;;
43042;SDS011;28667;50.758;6.096;2022-11-20T05:51:12;24.95;;;9.02;;
43042;SDS011;28667;50.758;6.096;2022-11-20T05:53:41;26.13;;;11.00;;
43042;SDS011;28667;50.758;6.096;2022-11-20T05:56:09;23.65;;;9.35;;
43042;SDS011;28667;50.758;6.096;2022-11-20T05:58:36;25.40;;;9.77;;
43042;SDS011;28667;50.758;6.096;2022-11-20T06:01:03;25.88;;;11.68;;
43042;SDS011;28667;50.758;6.096;2022-11-20T06:03:30;27.23;;;9.95;;
43042;SDS011;28667;50.758;6.096;2022-11-20T06:05:55;26.67;;;10.38;;
43042;SDS011;28667;50.758;6.096;2022-11-20T06:08:23;30.60;;;10.48;;
43042;SDS011;28667;50.758;6.096;2022-11-20T06:10:49;20.60;;;8.98;;
43042;SDS011;28667;50.758;6.096;2022-11-20T06:13:14;24.95;;;9.82;;
43042;SDS011;28667;50.758;6.096;2022-11-20T06:15:40;21.02;;;9.40;;
43042;SDS011;28667;50.758;6.096;2022-11-20T06:18:05;19.67;;;7.85;;
43042;SDS011;28667;50.758;6.096;2022-11-20T06:20:31;17.52;;;7.95;;
43042;SDS011;28667;50.758;6.096;2022-11-20T06:22:57;21.35;;;7.03;;
43042;SDS011;28667;50.758;6.096;2022-11-20T06:25:22;17.88;;;7.78;;
43042;SDS011;28667;50.758;6.096;2022-11-20T06:27:48;18.30;;;7.22;;
43042;SDS011;28667;50.758;6.096;2022-11-20T06:30:14;11.77;;;6.25;;
43042;SDS011;28667;50.758;6.096;2022-11-20T06:32:40;19.25;;;7.30;;
43042;SDS011;28667;50.758;6.096;2022-11-20T06:35:05;15.73;;;6.20;;
43042;SDS011;28667;50.758;6.096;2022-11-20T06:37:31;21.55;;;6.80;;
43042;SDS011;28667;50.758;6.096;2022-11-20T06:39:57;14.45;;;6.38;;
43042;SDS011;28667;50.758;6.096;2022-11-20T06:42:23;14.55;;;6.07;;
43042;SDS011;28667;50.758;6.096;2022-11-20T06:44:48;14.15;;;6.95;;
43042;SDS011;28667;50.758;6.096;2022-11-20T06:47:14;11.68;;;6.20;;
43042;SDS011;28667;50.758;6.096;2022-11-20T06:49:40;14.32;;;5.72;;
43042;SDS011;28667;50.758;6.096;2022-11-20T06:52:06;12.55;;;5.78;;
43042;SDS011;28667;50.758;6.096;2022-11-20T06:54:31;12.80;;;6.47;;
43042;SDS011;28667;50.758;6.096;2022-11-20T06:56:57;12.57;;;5.65;;
43042;SDS011;28667;50.758;6.096;2022-11-20T06:59:23;11.77;;;5.90;;
43042;SDS011;28667;50.758;6.096;2022-11-20T07:01:48;19.33;;;7.43;;
43042;SDS011;28667;50.758;6.096;2022-11-20T07:04:14;17.17;;;6.43;;
43042;SDS011;28667;50.758;6.096;2022-11-20T07:06:40;18.23;;;6.70;;
43042;SDS011;28667;50.758;6.096;2022-11-20T07:09:05;13.23;;;6.07;;
43042;SDS011;28667;50.758;6.096;2022-11-20T07:11:31;9.57;;;5.00;;
43042;SDS011;28667;50.758;6.096;2022-11-20T07:13:57;17.10;;;7.38;;
43042;SDS011;28667;50.758;6.096;2022-11-20T07:16:22;11.90;;;6.03;;
43042;SDS011;28667;50.758;6.096;2022-11-20T07:18:48;12.20;;;5.25;;
43042;SDS011;28667;50.758;6.096;2022-11-20T07:21:14;18.90;;;6.60;;
43042;SDS011;28667;50.758;6.096;2022-11-20T07:23:40;17.48;;;6.25;;
43042;SDS011;28667;50.758;6.096;2022-11-20T07:26:06;12.02;;;6.00;;
43042;SDS011;28667;50.758;6.096;2022-11-20T07:28:33;13.60;;;5.47;;
43042;SDS011;28667;50.758;6.096;2022-11-20T07:30:59;16.25;;;5.93;;
43042;SDS011;28667;50.758;6.096;2022-11-20T07:33:25;14.80;;;6.72;;
43042;SDS011;28667;50.758;6.096;2022-11-20T07:35:51;13.93;;;6.22;;
43042;SDS011;28667;50.758;6.096;2022-11-20T07:38:17;17.33;;;7.78;;
43042;SDS011;28667;50.758;6.096;2022-11-20T07:40:42;14.55;;;6.47;;
43042;SDS011;28667;50.758;6.096;2022-11-20T07:43:08;13.65;;;6.35;;
43042;SDS011;28667;50.758;6.096;2022-11-20T07:45:34;16.23;;;6.28;;
43042;SDS011;28667;50.758;6.096;2022-11-20T07:47:59;13.98;;;5.38;;
43042;SDS011;28667;50.758;6.096;2022-11-20T07:50:25;13.25;;;6.25;;
43042;SDS011;28667;50.758;6.096;2022-11-20T07:52:50;17.27;;;6.65;;
43042;SDS011;28667;50.758;6.096;2022-11-20T07:55:17;17.38;;;6.72;;
43042;SDS011;28667;50.758;6.096;2022-11-20T07:57:43;19.38;;;7.28;;
43042;SDS011;28667;50.758;6.096;2022-11-20T08:00:09;15.50;;;7.32;;
43042;SDS011;28667;50.758;6.096;2022-11-20T08:02:39;18.02;;;7.13;;
43042;SDS011;28667;50.758;6.096;2022-11-20T08:05:07;14.65;;;7.10;;
43042;SDS011;28667;50.758;6.096;2022-11-20T08:07:40;13.93;;;6.93;;
43042;SDS011;28667;50.758;6.096;2022-11-20T08:10:08;15.65;;;7.53;;
43042;SDS011;28667;50.758;6.096;2022-11-20T08:12:35;15.15;;;6.80;;
43042;SDS011;28667;50.758;6.096;2022-11-20T08:15:19;13.38;;;6.43;;
43042;SDS011;28667;50.758;6.096;2022-11-20T08:17:45;14.15;;;5.13;;
43042;SDS011;28667;50.758;6.096;2022-11-20T08:20:11;18.52;;;6.10;;
43042;SDS011;28667;50.758;6.096;2022-11-20T08:22:36;14.70;;;6.55;;
43042;SDS011;28667;50.758;6.096;2022-11-20T08:25:02;13.88;;;6.18;;
43042;SDS011;28667;50.758;6.096;2022-11-20T08:27:28;18.77;;;7.32;;
43042;SDS011;28667;50.758;6.096;2022-11-20T08:29:54;15.40;;;7.28;;
43042;SDS011;28667;50.758;6.096;2022-11-20T08:32:19;13.60;;;5.97;;
43042;SDS011;28667;50.758;6.096;2022-11-20T08:34:45;16.63;;;7.03;;
43042;SDS011;28667;50.758;6.096;2022-11-20T08:37:11;18.50;;;7.15;;
43042;SDS011;28667;50.758;6.096;2022-11-20T08:39:37;22.42;;;7.18;;
43042;SDS011;28667;50.758;6.096;2022-11-20T08:42:06;19.00;;;6.78;;
43042;SDS011;28667;50.758;6.096;2022-11-20T08:44:32;27.13;;;9.18;;
43042;SDS011;28667;50.758;6.096;2022-11-20T08:46:58;24.90;;;7.95;;
43042;SDS011;28667;50.758;6.096;2022-11-20T08:49:25;21.13;;;8.07;;
43042;SDS011;28667;50.758;6.096;2022-11-20T08:51:50;25.55;;;8.32;;
43042;SDS011;28667;50.758;6.096;2022-11-20T08:54:18;28.92;;;8.57;;
43042;SDS011;28667;50.758;6.096;2022-11-20T08:56:46;27.13;;;8.57;;
43042;SDS011;28667;50.758;6.096;2022-11-20T08:59:12;28.10;;;7.93;;
43042;SDS011;28667;50.758;6.096;2022-11-20T09:01:38;28.05;;;8.68;;
43042;SDS011;28667;50.758;6.096;2022-11-20T09:04:04;26.73;;;8.13;;
43042;SDS011;28667;50.758;6.096;2022-11-20T09:06:30;26.08;;;9.77;;
43042;SDS011;28667;50.758;6.096;2022-11-20T09:08:56;20.33;;;7.03;;
43042;SDS011;28667;50.758;6.096;2022-11-20T09:11:24;25.58;;;8.35;;
43042;SDS011;28667;50.758;6.096;2022-11-20T09:13:50;21.10;;;8.38;;
43042;SDS011;28667;50.758;6.096;2022-11-20T09:16:16;26.27;;;8.95;;
43042;SDS011;28667;50.758;6.096;2022-11-20T09:18:41;19.45;;;7.97;;
43042;SDS011;28667;50.758;6.096;2022-11-20T09:21:11;26.30;;;8.30;;
43042;SDS011;28667;50.758;6.096;2022-11-20T09:23:38;21.08;;;8.13;;
43042;SDS011;28667;50.758;6.096;2022-11-20T09:26:05;26.77;;;8.55;;
43042;SDS011;28667;50.758;6.096;2022-11-20T09:28:32;24.52;;;8.73;;
43042;SDS011;28667;50.758;6.096;2022-11-20T09:30:58;30.58;;;9.25;;
43042;SDS011;28667;50.758;6.096;2022-11-20T09:33:24;25.45;;;8.98;;
43042;SDS011;28667;50.758;6.096;2022-11-20T09:35:51;26.08;;;9.73;;
43042;SDS011;28667;50.758;6.096;2022-11-20T09:38:16;21.58;;;7.55;;
43042;SDS011;28667;50.758;6.096;2022-11-20T09:40:46;25.77;;;9.35;;
43042;SDS011;28667;50.758;6.096;2022-11-20T09:43:24;20.88;;;8.25;;
43042;SDS011;28667;50.758;6.096;2022-11-20T09:51:52;28.63;;;8.77;;
43042;SDS011;28667;50.758;6.096;2022-11-20T09:54:30;22.08;;;7.80;;
43042;SDS011;28667;50.758;6.096;2022-11-20T09:57:02;18.90;;;8.27;;
43042;SDS011;28667;50.758;6.096;2022-11-20T09:59:43;24.70;;;8.40;;
43042;SDS011;28667;50.758;6.096;2022-11-20T10:04:52;24.25;;;9.43;;
43042;SDS011;28667;50.758;6.096;2022-11-20T10:07:33;20.08;;;8.10;;
43042;SDS011;28667;50.758;6.096;2022-11-20T10:10:13;19.15;;;7.88;;
43042;SDS011;28667;50.758;6.096;2022-11-20T10:18:02;26.38;;;8.70;;
43042;SDS011;28667;50.758;6.096;2022-11-20T10:23:32;26.05;;;9.20;;
43042;SDS011;28667;50.758;6.096;2022-11-20T10:28:56;17.73;;;7.68;;
43042;SDS011;28667;50.758;6.096;2022-11-20T10:31:41;18.95;;;7.75;;
43042;SDS011;28667;50.758;6.096;2022-11-20T10:34:22;18.70;;;8.38;;
43042;SDS011;28667;50.758;6.096;2022-11-20T10:36:55;24.33;;;7.97;;
43042;SDS011;28667;50.758;6.096;2022-11-20T10:42:14;21.88;;;7.93;;
43042;SDS011;28667;50.758;6.096;2022-11-20T10:44:52;15.95;;;6.20;;
43042;SDS011;28667;50.758;6.096;2022-11-20T10:47:34;16.50;;;7.90;;
43042;SDS011;28667;50.758;6.096;2022-11-20T10:50:02;16.65;;;6.43;;
43042;SDS011;28667;50.758;6.096;2022-11-20T11:01:25;13.73;;;6.63;;
43042;SDS011;28667;50.758;6.096;2022-11-20T11:03:51;17.27;;;5.65;;
43042;SDS011;28667;50.758;6.096;2022-11-20T11:09:21;16.60;;;6.32;;
43042;SDS011;28667;50.758;6.096;2022-11-20T11:11:58;8.98;;;5.25;;
43042;SDS011;28667;50.758;6.096;2022-11-20T11:14:24;15.20;;;6.38;;
43042;SDS011;28667;50.758;6.096;2022-11-20T11:16:54;14.27;;;5.38;;
43042;SDS011;28667;50.758;6.096;2022-11-20T11:19:22;15.43;;;5.88;;
43042;SDS011;28667;50.758;6.096;2022-11-20T11:21:49;10.25;;;5.78;;
43042;SDS011;28667;50.758;6.096;2022-11-20T11:24:24;14.70;;;5.63;;
43042;SDS011;28667;50.758;6.096;2022-11-20T11:27:01;9.10;;;4.88;;
43042;SDS011;28667;50.758;6.096;2022-11-20T11:29:30;10.10;;;5.15;;
43042;SDS011;28667;50.758;6.096;2022-11-20T11:32:12;15.00;;;5.15;;
43042;SDS011;28667;50.758;6.096;2022-11-20T11:34:39;14.57;;;4.95;;
43042;SDS011;28667;50.758;6.096;2022-11-20T11:37:05;13.00;;;5.43;;
43042;SDS011;28667;50.758;6.096;2022-11-20T11:39:40;9.45;;;5.20;;
43042;SDS011;28667;50.758;6.096;2022-11-20T11:42:10;9.18;;;4.40;;
43042;SDS011;28667;50.758;6.096;2022-11-20T11:44:38;9.45;;;4.95;;
43042;SDS011;28667;50.758;6.096;2022-11-20T11:52:58;10.23;;;5.07;;
43042;SDS011;28667;50.758;6.096;2022-11-20T12:00:47;8.93;;;3.95;;
43042;SDS011;28667;50.758;6.096;2022-11-20T12:03:25;11.20;;;4.00;;
43042;SDS011;28667;50.758;6.096;2022-11-20T12:06:06;9.00;;;3.70;;
43042;SDS011;28667;50.758;6.096;2022-11-20T12:14:22;8.60;;;4.30;;
43042;SDS011;28667;50.758;6.096;2022-11-20T12:17:02;6.32;;;2.72;;
43042;SDS011;28667;50.758;6.096;2022-11-20T12:19:31;7.72;;;3.58;;
43042;SDS011;28667;50.758;6.096;2022-11-20T12:30:22;5.32;;;2.55;;
43042;SDS011;28667;50.758;6.096;2022-11-20T12:33:12;4.65;;;2.20;;
43042;SDS011;28667;50.758;6.096;2022-11-20T12:36:01;4.10;;;2.30;;
43042;SDS011;28667;50.758;6.096;2022-11-20T12:43:34;4.65;;;2.10;;
43042;SDS011;28667;50.758;6.096;2022-11-20T12:52:26;4.43;;;1.98;;
43042;SDS011;28667;50.758;6.096;2022-11-20T12:57:53;1.35;;;1.25;;
43042;SDS011;28667;50.758;6.096;2022-11-20T13:00:38;3.45;;;1.45;;
43042;SDS011;28667;50.758;6.096;2022-11-20T13:06:10;4.38;;;1.42;;
43042;SDS011;28667;50.758;6.096;2022-11-20T13:08:40;1.75;;;1.63;;
43042;SDS011;28667;50.758;6.096;2022-11-20T13:16:36;7.28;;;1.40;;
43042;SDS011;28667;50.758;6.096;2022-11-20T13:19:13;2.45;;;0.95;;
43042;SDS011;28667;50.758;6.096;2022-11-20T13:21:47;2.35;;;0.85;;
43042;SDS011;28667;50.758;6.096;2022-11-20T13:26:43;3.70;;;1.13;;
43042;SDS011;28667;50.758;6.096;2022-11-20T13:29:16;2.13;;;1.25;;
43042;SDS011;28667;50.758;6.096;2022-11-20T13:31:44;3.05;;;0.82;;
43042;SDS011;28667;50.758;6.096;2022-11-20T13:34:25;3.22;;;1.30;;
43042;SDS011;28667;50.758;6.096;2022-11-20T13:36:53;1.50;;;1.10;;
43042;SDS011;28667;50.758;6.096;2022-11-20T13:39:28;1.42;;;0.90;;
43042;SDS011;28667;50.758;6.096;2022-11-20T13:44:42;3.67;;;1.10;;
43042;SDS011;28667;50.758;6.096;2022-11-20T13:47:20;2.88;;;0.90;;
43042;SDS011;28667;50.758;6.096;2022-11-20T13:49:47;3.22;;;1.00;;
43042;SDS011;28667;50.758;6.096;2022-11-20T13:54:55;2.65;;;0.80;;
43042;SDS011;28667;50.758;6.096;2022-11-20T14:02:20;0.93;;;0.80;;
43042;SDS011;28667;50.758;6.096;2022-11-20T14:04:49;4.68;;;0.68;;
43042;SDS011;28667;50.758;6.096;2022-11-20T14:07:18;1.40;;;1.00;;
43042;SDS011;28667;50.758;6.096;2022-11-20T14:09:54;2.13;;;0.82;;
43042;SDS011;28667;50.758;6.096;2022-11-20T14:12:23;1.27;;;0.82;;
43042;SDS011;28667;50.758;6.096;2022-11-20T14:14:56;1.83;;;1.00;;
43042;SDS011;28667;50.758;6.096;2022-11-20T14:17:23;1.83;;;0.82;;
43042;SDS011;28667;50.758;6.096;2022-11-20T14:19:51;1.90;;;1.27;;
43042;SDS011;28667;50.758;6.096;2022-11-20T14:22:22;5.47;;;2.25;;
43042;SDS011;28667;50.758;6.096;2022-11-20T14:25:00;1.38;;;0.60;;
43042;SDS011;28667;50.758;6.096;2022-11-20T14:27:33;2.15;;;0.75;;
43042;SDS011;28667;50.758;6.096;2022-11-20T14:30:02;2.40;;;0.50;;
43042;SDS011;28667;50.758;6.096;2022-11-20T14:32:29;0.98;;;0.57;;
43042;SDS011;28667;50.758;6.096;2022-11-20T14:34:56;1.90;;;0.60;;
43042;SDS011;28667;50.758;6.096;2022-11-20T14:37:27;2.35;;;0.68;;
43042;SDS011;28667;50.758;6.096;2022-11-20T14:39:57;4.63;;;1.88;;
43042;SDS011;28667;50.758;6.096;2022-11-20T14:42:25;3.22;;;0.95;;
43042;SDS011;28667;50.758;6.096;2022-11-20T14:44:54;2.33;;;0.95;;
43042;SDS011;28667;50.758;6.096;2022-11-20T14:47:23;2.03;;;1.13;;
43042;SDS011;28667;50.758;6.096;2022-11-20T14:49:51;13.45;;;1.10;;
43042;SDS011;28667;50.758;6.096;2022-11-20T14:52:19;1.00;;;0.90;;
43042;SDS011;28667;50.758;6.096;2022-11-20T14:54:47;2.03;;;1.27;;
43042;SDS011;28667;50.758;6.096;2022-11-20T14:59:46;0.82;;;0.70;;
43042;SDS011;28667;50.758;6.096;2022-11-20T15:02:11;2.30;;;0.70;;
43042;SDS011;28667;50.758;6.096;2022-11-20T15:04:47;0.95;;;0.43;;
43042;SDS011;28667;50.758;6.096;2022-11-20T15:07:24;2.00;;;0.90;;
43042;SDS011;28667;50.758;6.096;2022-11-20T15:10:01;1.48;;;1.05;;
43042;SDS011;28667;50.758;6.096;2022-11-20T15:12:26;1.20;;;0.82;;
43042;SDS011;28667;50.758;6.096;2022-11-20T15:14:53;1.95;;;0.70;;
43042;SDS011;28667;50.758;6.096;2022-11-20T15:17:19;0.60;;;0.50;;
43042;SDS011;28667;50.758;6.096;2022-11-20T15:19:44;4.78;;;0.88;;
43042;SDS011;28667;50.758;6.096;2022-11-20T15:22:11;4.57;;;0.90;;
43042;SDS011;28667;50.758;6.096;2022-11-20T15:24:41;0.88;;;0.70;;
43042;SDS011;28667;50.758;6.096;2022-11-20T15:27:10;0.65;;;0.65;;
43042;SDS011;28667;50.758;6.096;2022-11-20T15:29:35;2.70;;;1.08;;
43042;SDS011;28667;50.758;6.096;2022-11-20T15:32:02;0.70;;;0.70;;
43042;SDS011;28667;50.758;6.096;2022-11-20T15:34:28;0.75;;;0.65;;
43042;SDS011;28667;50.758;6.096;2022-11-20T15:36:54;0.70;;;0.68;;
43042;SDS011;28667;50.758;6.096;2022-11-20T15:39:19;0.77;;;0.60;;
43042;SDS011;28667;50.758;6.096;2022-11-20T15:41:46;0.90;;;0.90;;
43042;SDS011;28667;50.758;6.096;2022-11-20T15:44:11;2.20;;;0.90;;
43042;SDS011;28667;50.758;6.096;2022-11-20T15:46:38;0.55;;;0.52;;
43042;SDS011;28667;50.758;6.096;2022-11-20T15:49:14;0.90;;;0.85;;
43042;SDS011;28667;50.758;6.096;2022-11-20T15:51:41;1.60;;;1.05;;
43042;SDS011;28667;50.758;6.096;2022-11-20T15:54:13;2.75;;;0.75;;
43042;SDS011;28667;50.758;6.096;2022-11-20T15:56:45;1.40;;;0.63;;
43042;SDS011;28667;50.758;6.096;2022-11-20T15:59:11;0.60;;;0.60;;
43042;SDS011;28667;50.758;6.096;2022-11-20T16:01:39;1.13;;;0.90;;
43042;SDS011;28667;50.758;6.096;2022-11-20T16:04:15;1.27;;;0.70;;
43042;SDS011;28667;50.758;6.096;2022-11-20T16:06:41;1.00;;;0.88;;
43042;SDS011;28667;50.758;6.096;2022-11-20T16:09:08;0.80;;;0.75;;
43042;SDS011;28667;50.758;6.096;2022-11-20T16:11:34;2.55;;;1.80;;
43042;SDS011;28667;50.758;6.096;2022-11-20T16:14:02;2.63;;;1.05;;
43042;SDS011;28667;50.758;6.096;2022-11-20T16:19:12;0.70;;;0.65;;
43042;SDS011;28667;50.758;6.096;2022-11-20T16:21:39;0.50;;;0.50;;
43042;SDS011;28667;50.758;6.096;2022-11-20T16:24:07;0.40;;;0.40;;
43042;SDS011;28667;50.758;6.096;2022-11-20T16:26:34;0.90;;;0.60;;
43042;SDS011;28667;50.758;6.096;2022-11-20T16:29:00;0.68;;;0.47;;
43042;SDS011;28667;50.758;6.096;2022-11-20T16:31:27;2.08;;;0.60;;
43042;SDS011;28667;50.758;6.096;2022-11-20T16:33:54;0.28;;;0.28;;